createdAt,value
2022-08-08T00:02:32.829Z,84.77
2022-08-08T00:07:29.775Z,83.53
2022-08-08T00:12:33.145Z,83.67
2022-08-08T00:18:02.459Z,84.78
2022-08-08T00:23:01.893Z,84.57
2022-08-08T00:28:34.244Z,84.10
2022-08-08T00:34:17.464Z,85.04
2022-08-08T00:38:55.966Z,86.50
2022-08-08T00:44:00.991Z,87.74
2022-08-08T00:49:04.600Z,89.21
2022-08-08T00:54:28.753Z,89.78
2022-08-08T00:59:44.047Z,90.69
2022-08-08T01:04:50.115Z,91.82
2022-08-08T01:09:52.867Z,93.33
2022-08-08T01:15:00.378Z,91.77
2022-08-08T01:20:03.927Z,92.83
2022-08-08T01:25:16.634Z,93.08
2022-08-08T01:30:20.126Z,93.84
2022-08-08T01:35:29.646Z,94.51
2022-08-08T01:40:34.421Z,94.87
2022-08-08T01:45:38.817Z,95.30
2022-08-08T01:50:42.900Z,96.24
2022-08-08T01:56:27.602Z,95.25
2022-08-08T02:01:15.896Z,94.96
2022-08-08T02:06:33.019Z,95.51
2022-08-08T02:11:59.116Z,95.23
2022-08-08T02:17:10.767Z,94.86
2022-08-08T02:22:52.828Z,95.28
2022-08-08T02:27:58.457Z,96.32
2022-08-08T02:33:04.951Z,97.23
2022-08-08T02:38:10.596Z,96.75
2022-08-08T02:44:37.667Z,97.33
2022-08-08T02:48:42.662Z,97.48
2022-08-08T02:53:47.369Z,96.71
2022-08-08T02:58:54.549Z,97.97
2022-08-08T03:05:03.522Z,97.90
2022-08-08T03:09:20.697Z,98.18
2022-08-08T03:16:00.052Z,98.69
2022-08-08T03:19:50.869Z,98.74
2022-08-08T03:24:56.925Z,99.67
2022-08-08T03:30:01.624Z,100.00
2022-08-08T03:35:04.634Z,100.00
2022-08-08T03:40:18.358Z,100.00
2022-08-08T03:46:07.395Z,100.00
2022-08-08T03:50:57.339Z,100.00
2022-08-08T03:56:04.498Z,100.00
2022-08-08T04:01:24.420Z,100.00
2022-08-08T04:06:30.543Z,100.00
2022-08-08T04:11:57.762Z,100.00
2022-08-08T04:16:59.301Z,100.00
2022-08-08T04:22:23.991Z,100.00
2022-08-08T04:28:36.309Z,100.00
2022-08-08T04:33:30.814Z,100.00
2022-08-08T04:40:05.372Z,100.00
2022-08-08T04:44:48.074Z,100.00
2022-08-08T04:50:14.436Z,100.00
2022-08-08T04:55:55.935Z,100.00
2022-08-08T05:01:20.062Z,100.00
2022-08-08T05:06:43.210Z,100.00
2022-08-08T05:11:47.796Z,100.00
2022-08-08T05:17:01.525Z,100.00
2022-08-08T05:22:04.726Z,100.00
2022-08-08T05:27:09.719Z,96.20
2022-08-08T05:32:13.009Z,93.71
2022-08-08T05:37:18.675Z,89.88
2022-08-08T05:42:29.342Z,88.11
2022-08-08T05:47:52.616Z,87.05
2022-08-08T05:52:56.205Z,85.08
2022-08-08T05:58:05.108Z,83.63
2022-08-08T06:03:17.481Z,82.57
2022-08-08T06:08:34.895Z,80.67
2022-08-08T06:13:47.461Z,79.41
2022-08-08T06:18:52.060Z,79.00
2022-08-08T06:24:02.401Z,75.78
2022-08-08T06:29:26.657Z,75.87
2022-08-08T06:34:32.266Z,74.95
2022-08-08T06:39:35.645Z,72.35
2022-08-08T06:44:59.473Z,69.91
2022-08-08T06:50:04.278Z,70.11
2022-08-08T06:55:08.291Z,69.62
2022-08-08T07:00:12.823Z,69.52
2022-08-08T07:05:20.360Z,67.92
2022-08-08T07:10:23.909Z,65.64
2022-08-08T07:16:03.480Z,68.30
2022-08-08T07:20:50.813Z,67.44
2022-08-08T07:25:55.593Z,66.48
2022-08-08T07:30:59.223Z,65.51
2022-08-08T07:36:05.391Z,62.65
2022-08-08T07:41:23.761Z,62.74
2022-08-08T07:46:30.758Z,61.67
2022-08-08T07:51:44.972Z,59.75
2022-08-08T07:57:00.271Z,61.48
2022-08-08T08:02:34.492Z,61.86
2022-08-08T08:07:32.455Z,60.63
2022-08-08T08:12:43.317Z,58.68
2022-08-08T08:17:49.139Z,58.55
2022-08-08T08:22:58.094Z,58.38
2022-08-08T08:28:00.934Z,57.10
2022-08-08T08:33:06.326Z,60.03
2022-08-08T08:38:17.075Z,56.64
2022-08-08T08:43:26.695Z,55.84
2022-08-08T08:48:31.578Z,58.77
2022-08-08T08:53:58.981Z,55.51
2022-08-08T08:58:58.438Z,55.85
2022-08-08T09:04:04.155Z,53.42
2022-08-08T09:09:07.096Z,50.89
2022-08-08T09:14:10.525Z,51.86
2022-08-08T09:19:13.891Z,53.39
2022-08-08T09:24:17.676Z,51.15
2022-08-08T09:29:24.771Z,47.60
2022-08-08T09:34:32.602Z,49.90
2022-08-08T09:39:41.810Z,50.31
2022-08-08T09:44:45.461Z,49.81
2022-08-08T09:49:51.550Z,50.40
2022-08-08T09:54:54.589Z,49.16
2022-08-08T10:05:25.278Z,50.37
2022-08-08T10:10:30.437Z,48.42
2022-08-08T10:15:35.283Z,49.90
2022-08-08T10:20:43.668Z,48.74
2022-08-08T10:25:55.931Z,47.86
2022-08-08T10:31:01.766Z,47.28
2022-08-08T10:36:20.742Z,47.67
2022-08-08T10:41:25.635Z,48.34
2022-08-08T10:46:39.130Z,49.58
2022-08-08T10:51:51.133Z,48.23
2022-08-08T10:56:55.057Z,47.86
2022-08-08T11:01:58.254Z,48.35
2022-08-08T11:07:04.050Z,47.95
2022-08-08T11:12:14.026Z,44.33
2022-08-08T11:17:17.974Z,42.21
2022-08-08T11:22:42.137Z,46.15
2022-08-08T11:27:47.390Z,45.79
2022-08-08T11:32:52.178Z,45.73
2022-08-08T11:38:39.757Z,44.89
2022-08-08T11:43:21.669Z,44.59
2022-08-08T11:48:27.827Z,44.15
2022-08-08T11:53:31.300Z,43.07
2022-08-08T11:58:46.345Z,44.16
2022-08-08T12:03:59.399Z,44.66
2022-08-08T12:09:03.064Z,44.00
2022-08-08T12:14:07.842Z,43.76
2022-08-08T12:19:15.887Z,43.37
2022-08-08T12:24:27.987Z,43.62
2022-08-08T12:29:41.308Z,43.17
2022-08-08T12:34:48.715Z,42.32
2022-08-08T12:40:00.943Z,43.26
2022-08-08T12:45:14.456Z,41.59
2022-08-08T12:50:29.211Z,41.80
2022-08-08T12:55:56.562Z,42.20
2022-08-08T13:00:55.923Z,42.21
2022-08-08T13:06:04.031Z,41.54
2022-08-08T13:11:10.830Z,41.67
2022-08-08T13:16:14.663Z,40.18
2022-08-08T13:21:18.693Z,39.77
2022-08-08T13:26:27.078Z,40.46
2022-08-08T13:31:30.886Z,39.20
2022-08-08T13:36:34.573Z,37.94
2022-08-08T13:41:44.478Z,38.28
2022-08-08T13:46:57.962Z,39.32
2022-08-08T13:52:01.700Z,39.26
2022-08-08T13:57:08.559Z,39.55
2022-08-08T14:02:15.056Z,38.66
2022-08-08T14:07:24.878Z,38.16
2022-08-08T14:12:33.965Z,38.42
2022-08-08T14:17:57.781Z,39.14
2022-08-08T14:23:00.544Z,37.03
2022-08-08T14:28:13.594Z,36.96
2022-08-08T14:33:16.859Z,37.52
2022-08-08T14:38:34.075Z,37.91
2022-08-08T14:44:10.227Z,37.06
2022-08-08T14:49:20.581Z,38.04
2022-08-08T14:54:36.040Z,37.20
2022-08-08T14:59:44.350Z,37.85
2022-08-08T15:04:54.221Z,36.96
2022-08-08T15:09:58.031Z,37.55
2022-08-08T15:15:01.859Z,36.59
2022-08-08T15:20:14.132Z,35.34
2022-08-08T15:25:29.176Z,36.76
2022-08-08T15:30:33.711Z,37.67
2022-08-08T15:35:39.263Z,37.95
2022-08-08T15:40:44.339Z,38.68
2022-08-08T15:45:48.924Z,39.47
2022-08-08T15:51:06.304Z,39.57
2022-08-08T15:56:13.038Z,39.39
2022-08-08T16:01:16.150Z,39.01
2022-08-08T16:06:28.759Z,39.46
2022-08-08T16:13:11.080Z,40.15
2022-08-08T16:16:57.441Z,40.52
2022-08-08T16:22:00.212Z,40.69
2022-08-08T16:27:04.488Z,41.59
2022-08-08T16:32:20.851Z,41.79
2022-08-08T16:37:27.842Z,41.33
2022-08-08T16:42:31.520Z,40.78
2022-08-08T16:47:42.281Z,41.34
2022-08-08T16:55:05.141Z,42.14
2022-08-08T16:58:14.326Z,43.14
2022-08-08T17:03:25.137Z,42.86
2022-08-08T17:08:42.397Z,43.51
2022-08-08T17:14:00.759Z,43.60
2022-08-08T17:19:04.603Z,43.36
2022-08-08T17:24:10.679Z,43.22
2022-08-08T17:29:25.406Z,43.76
2022-08-08T17:34:52.707Z,44.18
2022-08-08T17:40:05.834Z,44.92
2022-08-08T17:45:22.400Z,45.82
2022-08-08T17:50:26.971Z,45.87
2022-08-08T17:56:03.743Z,46.52
2022-08-08T18:00:54.501Z,47.02
2022-08-08T18:05:59.982Z,47.55
2022-08-08T18:11:02.842Z,47.33
2022-08-08T18:16:06.436Z,47.88
2022-08-08T18:21:10.766Z,48.92
2022-08-08T18:26:32.352Z,48.89
2022-08-08T18:31:39.187Z,49.78
2022-08-08T18:36:44.477Z,49.84
2022-08-08T18:41:59.584Z,50.20
2022-08-08T18:47:06.361Z,51.30
2022-08-08T18:52:22.407Z,51.81
2022-08-08T18:57:26.770Z,52.31
2022-08-08T19:02:30.119Z,53.06
2022-08-08T19:07:37.557Z,53.47
2022-08-08T19:12:44.761Z,54.85
2022-08-08T19:18:32.243Z,55.21
2022-08-08T19:23:19.366Z,55.04
2022-08-08T19:28:24.583Z,58.40
2022-08-08T19:33:39.550Z,56.92
2022-08-08T19:38:52.366Z,57.49
2022-08-08T19:44:03.204Z,57.85
2022-08-08T19:49:07.560Z,58.43
2022-08-08T19:54:13.512Z,60.28
2022-08-08T19:59:22.177Z,58.40
2022-08-08T20:04:26.024Z,58.57
2022-08-08T20:09:30.054Z,61.09
2022-08-08T20:14:41.932Z,57.96
2022-08-08T20:19:45.309Z,59.48
2022-08-08T20:24:50.595Z,61.81
2022-08-08T20:30:00.291Z,61.55
2022-08-08T20:35:03.950Z,60.09
2022-08-08T20:40:06.970Z,62.49
2022-08-08T20:45:10.546Z,63.22
2022-08-08T20:50:15.459Z,64.61
2022-08-08T20:55:25.770Z,64.25
2022-08-08T21:00:29.353Z,64.70
2022-08-08T21:05:33.177Z,65.05
2022-08-08T21:10:55.970Z,65.13
2022-08-08T21:16:06.374Z,66.86
2022-08-08T21:21:41.233Z,66.21
2022-08-08T21:26:44.798Z,67.63
2022-08-08T21:31:53.135Z,67.23
2022-08-08T21:37:11.148Z,67.99
2022-08-08T21:42:14.446Z,67.33
2022-08-08T21:48:07.163Z,68.48
2022-08-08T21:54:32.948Z,68.31
2022-08-08T21:58:07.582Z,69.81
2022-08-08T22:03:17.606Z,71.11
2022-08-08T22:08:24.361Z,71.76
2022-08-08T22:13:47.694Z,72.54
2022-08-08T22:18:52.438Z,73.01
2022-08-08T22:23:56.533Z,74.36
2022-08-08T22:29:15.139Z,74.67
2022-08-08T22:34:23.089Z,75.96
2022-08-08T22:39:45.910Z,75.94
2022-08-08T22:44:54.443Z,76.81
2022-08-08T22:50:00.078Z,77.45
2022-08-08T22:55:06.303Z,78.07
2022-08-08T23:00:11.739Z,78.66
2022-08-08T23:05:17.400Z,78.19
2022-08-08T23:10:25.501Z,79.25
2022-08-08T23:16:41.522Z,79.13
2022-08-08T23:20:55.046Z,79.41
2022-08-08T23:25:58.315Z,79.23
2022-08-08T23:31:03.233Z,81.07
2022-08-08T23:36:09.201Z,82.37
2022-08-08T23:41:23.238Z,82.86
2022-08-08T23:49:08.146Z,84.12
2022-08-08T23:52:05.017Z,85.15
2022-08-08T23:57:15.186Z,84.83
